createdAt,value
2022-12-20T00:03:03.267Z,101794.00
2022-12-20T00:06:08.000Z,101785.69
2022-12-20T00:09:13.088Z,101791.13
2022-12-20T00:12:18.290Z,101773.31
2022-12-20T00:15:22.938Z,101757.78
2022-12-20T00:18:27.374Z,101773.69
2022-12-20T00:21:32.817Z,101766.72
2022-12-20T00:24:37.613Z,101758.53
2022-12-20T00:27:41.834Z,101771.06
2022-12-20T00:30:46.430Z,101753.59
2022-12-20T00:33:53.020Z,101752.78
2022-12-20T00:36:57.595Z,101769.88
2022-12-20T00:40:02.186Z,101772.66
2022-12-20T00:43:07.715Z,101759.56
2022-12-20T00:46:17.149Z,101759.44
2022-12-20T00:49:22.059Z,101748.94
2022-12-20T00:52:26.428Z,101725.56
2022-12-20T00:55:32.234Z,101754.41
2022-12-20T00:58:39.736Z,101751.47
2022-12-20T01:01:44.724Z,101756.78
2022-12-20T01:04:51.116Z,101762.06
2022-12-20T01:07:55.505Z,101737.50
2022-12-20T01:11:24.854Z,101751.16
2022-12-20T01:14:29.333Z,101744.84
2022-12-20T01:17:33.878Z,101727.94
2022-12-20T01:20:38.278Z,101741.31
2022-12-20T01:23:43.203Z,101737.97
2022-12-20T01:26:48.768Z,101725.03
2022-12-20T01:29:53.189Z,101723.00
2022-12-20T01:32:57.548Z,101702.25
2022-12-20T01:36:05.699Z,101670.56
2022-12-20T01:39:16.572Z,101668.59
2022-12-20T01:42:20.821Z,101703.63
2022-12-20T01:45:32.011Z,101686.41
2022-12-20T01:48:37.112Z,101702.88
2022-12-20T01:51:50.754Z,101691.28
2022-12-20T01:55:10.066Z,101692.34
2022-12-20T01:58:15.990Z,101685.44
2022-12-20T02:01:20.725Z,101684.53
2022-12-20T02:04:25.779Z,101683.84
2022-12-20T02:07:34.871Z,101668.50
2022-12-20T02:11:07.618Z,101682.59
2022-12-20T02:14:43.653Z,101678.91
2022-12-20T02:17:57.028Z,101677.63
2022-12-20T02:21:28.974Z,101684.66
2022-12-20T02:25:14.560Z,101682.38
2022-12-20T02:29:18.314Z,101685.19
2022-12-20T02:32:29.901Z,101689.31
2022-12-20T02:35:37.552Z,101682.94
2022-12-20T02:38:42.853Z,101676.13
2022-12-20T02:41:54.797Z,101666.53
2022-12-20T02:45:23.046Z,101660.97
2022-12-20T02:48:30.886Z,101662.28
2022-12-20T02:51:37.771Z,101647.69
2022-12-20T02:54:42.625Z,101651.88
2022-12-20T02:58:07.117Z,101650.63
2022-12-20T03:01:18.693Z,101642.88
2022-12-20T03:04:27.970Z,101641.22
2022-12-20T03:07:36.549Z,101636.31
2022-12-20T03:10:41.239Z,101587.53
2022-12-20T03:13:45.874Z,101598.69
2022-12-20T03:16:50.485Z,101631.34
2022-12-20T03:19:55.513Z,101638.94
2022-12-20T03:23:00.281Z,101618.88
2022-12-20T03:26:05.339Z,101624.69
2022-12-20T03:29:18.676Z,101611.88
2022-12-20T03:32:24.139Z,101622.78
2022-12-20T03:35:28.794Z,101615.19
2022-12-20T03:38:33.161Z,101602.91
2022-12-20T03:41:37.970Z,101620.69
2022-12-20T03:44:44.393Z,101591.78
2022-12-20T03:47:49.024Z,101601.91
2022-12-20T03:50:53.658Z,101583.72
2022-12-20T03:53:58.391Z,101586.28
2022-12-20T03:57:17.567Z,101602.97
2022-12-20T04:00:24.534Z,101597.09
2022-12-20T04:03:36.559Z,101585.78
2022-12-20T04:06:41.672Z,101570.69
2022-12-20T04:09:46.212Z,101611.81
2022-12-20T04:12:53.771Z,101606.72
2022-12-20T04:16:00.944Z,101604.16
2022-12-20T04:19:09.673Z,101606.81
2022-12-20T04:22:18.132Z,101588.31
2022-12-20T04:25:28.673Z,101607.78
2022-12-20T04:28:33.494Z,101605.72
2022-12-20T04:31:38.396Z,101574.19
2022-12-20T04:34:42.904Z,101598.69
2022-12-20T04:37:48.390Z,101596.72
2022-12-20T04:40:53.939Z,101599.28
2022-12-20T04:44:00.449Z,101603.94
2022-12-20T04:47:13.576Z,101552.66
2022-12-20T04:50:19.976Z,101603.03
2022-12-20T04:53:44.001Z,101596.75
2022-12-20T04:56:49.139Z,101601.16
2022-12-20T04:59:58.128Z,101589.03
2022-12-20T05:03:02.743Z,101587.69
2022-12-20T05:06:08.362Z,101580.00
2022-12-20T05:09:14.371Z,101586.00
2022-12-20T05:12:18.894Z,101537.34
2022-12-20T05:15:23.535Z,101584.75
2022-12-20T05:18:30.076Z,101602.56
2022-12-20T05:21:56.780Z,101580.22
2022-12-20T05:25:20.195Z,101607.03
2022-12-20T05:28:26.540Z,101618.06
2022-12-20T05:31:31.148Z,101625.91
2022-12-20T05:34:36.275Z,101626.41
2022-12-20T05:37:41.257Z,101634.97
2022-12-20T05:40:53.114Z,101620.50
2022-12-20T05:43:57.609Z,101634.09
2022-12-20T05:47:02.831Z,101627.91
2022-12-20T05:50:16.675Z,101631.72
2022-12-20T05:53:43.536Z,101646.28
2022-12-20T05:56:48.351Z,101646.88
2022-12-20T05:59:57.248Z,101654.13
2022-12-20T06:03:02.949Z,101643.16
2022-12-20T06:06:13.953Z,101657.09
2022-12-20T06:09:20.482Z,101651.97
2022-12-20T06:12:39.776Z,101646.91
2022-12-20T06:15:44.898Z,101652.91
2022-12-20T06:18:49.420Z,101650.19
2022-12-20T06:21:54.761Z,101629.56
2022-12-20T06:25:10.331Z,101637.94
2022-12-20T06:28:22.512Z,101634.81
2022-12-20T06:31:27.601Z,101639.00
2022-12-20T06:34:36.107Z,101638.09
2022-12-20T06:37:41.449Z,101654.56
2022-12-20T06:40:45.985Z,101632.69
2022-12-20T06:43:50.469Z,101636.91
2022-12-20T06:46:55.456Z,101640.63
2022-12-20T06:50:00.998Z,101635.25
2022-12-20T06:53:07.799Z,101631.47
2022-12-20T06:56:13.328Z,101629.34
2022-12-20T06:59:18.670Z,101619.47
2022-12-20T07:02:25.324Z,101623.16
2022-12-20T07:05:32.107Z,101609.56
2022-12-20T07:08:37.036Z,101617.28
2022-12-20T07:11:41.670Z,101588.53
2022-12-20T07:14:46.180Z,101593.09
2022-12-20T07:17:50.493Z,101623.19
2022-12-20T07:20:55.061Z,101592.97
2022-12-20T07:23:59.504Z,101630.38
2022-12-20T07:27:04.179Z,101629.25
2022-12-20T07:30:09.433Z,101633.38
2022-12-20T07:33:14.033Z,101620.47
2022-12-20T07:36:18.716Z,101615.72
2022-12-20T07:39:23.232Z,101580.13
2022-12-20T07:42:35.555Z,101624.28
2022-12-20T07:45:41.487Z,101625.03
2022-12-20T07:48:46.686Z,101624.06
2022-12-20T07:51:53.661Z,101626.19
2022-12-20T07:55:03.003Z,101614.25
2022-12-20T07:58:10.899Z,101607.06
2022-12-20T08:01:15.793Z,101604.16
2022-12-20T08:04:25.071Z,101584.47
2022-12-20T08:07:31.785Z,101612.59
2022-12-20T08:10:38.091Z,101593.31
2022-12-20T08:13:46.565Z,101592.84
2022-12-20T08:16:52.032Z,101605.06
2022-12-20T08:19:58.434Z,101601.94
2022-12-20T08:23:05.627Z,101595.66
2022-12-20T08:26:10.239Z,101590.59
2022-12-20T08:29:14.931Z,101591.66
2022-12-20T08:32:19.436Z,101598.59
2022-12-20T08:35:24.992Z,101591.78
2022-12-20T08:38:30.843Z,101586.34
2022-12-20T08:41:38.883Z,101587.72
2022-12-20T08:44:43.481Z,101592.63
2022-12-20T08:47:48.748Z,101589.75
2022-12-20T08:50:57.042Z,101583.00
2022-12-20T08:54:01.640Z,101589.44
2022-12-20T08:57:05.888Z,101584.16
2022-12-20T09:00:11.165Z,101592.31
2022-12-20T09:03:16.239Z,101561.34
2022-12-20T09:06:21.753Z,101589.63
2022-12-20T09:09:26.250Z,101586.16
2022-12-20T09:12:30.983Z,101582.22
2022-12-20T09:15:36.975Z,101590.53
2022-12-20T09:18:42.262Z,101589.97
2022-12-20T09:21:48.289Z,101584.97
2022-12-20T09:24:52.852Z,101576.31
2022-12-20T09:27:57.399Z,101564.94
2022-12-20T09:31:07.495Z,101594.91
2022-12-20T09:34:12.443Z,101586.84
2022-12-20T09:37:16.953Z,101570.63
2022-12-20T09:40:25.603Z,101583.09
2022-12-20T09:43:30.935Z,101583.25
2022-12-20T09:46:35.873Z,101568.13
2022-12-20T09:49:45.575Z,101586.63
2022-12-20T09:53:18.749Z,101580.50
2022-12-20T09:56:29.598Z,101576.25
2022-12-20T09:59:40.361Z,101564.88
2022-12-20T10:03:06.573Z,101579.28
2022-12-20T10:06:32.308Z,101582.91
2022-12-20T10:09:55.369Z,101584.09
2022-12-20T10:13:06.104Z,101573.69
2022-12-20T10:16:37.808Z,101565.22
2022-12-20T10:20:07.460Z,101572.78
2022-12-20T10:23:30.917Z,101577.75
2022-12-20T10:26:37.168Z,101578.56
2022-12-20T10:29:42.216Z,101578.50
2022-12-20T10:32:48.592Z,101580.72
2022-12-20T10:35:53.204Z,101557.25
2022-12-20T10:39:00.527Z,101569.16
2022-12-20T10:42:05.449Z,101569.03
2022-12-20T10:45:36.614Z,101567.09
2022-12-20T10:48:44.045Z,101567.72
2022-12-20T10:51:58.558Z,101549.16
2022-12-20T10:55:03.515Z,101565.22
2022-12-20T10:58:31.209Z,101570.91
2022-12-20T11:01:38.534Z,101563.63
2022-12-20T11:04:43.024Z,101549.25
2022-12-20T11:11:26.213Z,101552.13
2022-12-20T11:14:38.698Z,101555.88
2022-12-20T11:17:49.742Z,101562.19
2022-12-20T11:21:05.949Z,101554.06
2022-12-20T11:24:36.698Z,101549.06
2022-12-20T11:28:07.576Z,101568.53
2022-12-20T11:31:24.989Z,101557.19
2022-12-20T11:35:08.491Z,101576.38
2022-12-20T11:38:33.269Z,101561.63
2022-12-20T11:42:12.669Z,101588.31
2022-12-20T11:45:55.344Z,101574.22
2022-12-20T11:49:21.096Z,101584.28
2022-12-20T11:52:40.412Z,101571.00
2022-12-20T11:55:50.691Z,101568.28
2022-12-20T11:59:13.948Z,101577.44
2022-12-20T12:02:44.592Z,101575.91
2022-12-20T12:05:56.808Z,101569.22
2022-12-20T12:09:07.171Z,101562.47
2022-12-20T12:12:19.588Z,101509.81
2022-12-20T12:15:40.827Z,101567.03
2022-12-20T12:18:46.228Z,101494.53
2022-12-20T12:22:07.595Z,101560.22
2022-12-20T12:25:18.770Z,101546.72
2022-12-20T12:28:24.871Z,101555.78
2022-12-20T12:31:34.384Z,101557.91
2022-12-20T12:35:07.162Z,101561.06
2022-12-20T12:38:29.783Z,101549.66
2022-12-20T12:41:59.950Z,101539.47
2022-12-20T12:45:19.414Z,101568.47
2022-12-20T12:48:28.953Z,101542.03
2022-12-20T12:51:44.616Z,101556.97
2022-12-20T12:54:49.404Z,101562.09
2022-12-20T12:57:58.818Z,101561.34
2022-12-20T13:01:06.279Z,101570.38
2022-12-20T13:04:23.991Z,101549.69
2022-12-20T13:07:32.842Z,101566.91
2022-12-20T13:10:38.023Z,101576.94
2022-12-20T13:13:42.701Z,101568.47
2022-12-20T13:17:11.677Z,101570.66
2022-12-20T13:20:20.428Z,101427.00
2022-12-20T13:23:25.077Z,101568.56
2022-12-20T13:26:55.595Z,101559.06
2022-12-20T13:30:10.944Z,101577.53
2022-12-20T13:33:24.941Z,101569.31
2022-12-20T13:36:36.717Z,101570.72
2022-12-20T13:39:41.322Z,101514.88
2022-12-20T13:42:46.437Z,101549.34
2022-12-20T13:46:22.676Z,101556.44
2022-12-20T13:49:43.883Z,101576.72
2022-12-20T13:52:49.874Z,101574.63
2022-12-20T13:55:55.481Z,101573.88
2022-12-20T13:59:32.870Z,101568.28
2022-12-20T14:02:43.293Z,101566.41
2022-12-20T14:05:48.542Z,101547.53
2022-12-20T14:08:54.185Z,101571.59
2022-12-20T14:12:21.173Z,101574.63
2022-12-20T14:15:34.720Z,101565.59
2022-12-20T14:18:39.397Z,101551.69
2022-12-20T14:21:48.110Z,101550.97
2022-12-20T14:24:52.613Z,101545.81
2022-12-20T14:27:58.039Z,101529.97
2022-12-20T14:31:23.693Z,101548.25
2022-12-20T14:34:33.148Z,101541.34
2022-12-20T14:37:42.288Z,101529.72
2022-12-20T14:40:53.610Z,101534.50
2022-12-20T14:44:04.108Z,101527.59
2022-12-20T14:47:28.927Z,101533.91
2022-12-20T14:50:38.251Z,101527.69
2022-12-20T14:53:47.040Z,101510.47
2022-12-20T14:56:53.209Z,101514.31
2022-12-20T15:00:18.732Z,101522.00
2022-12-20T15:03:24.583Z,101487.31
2022-12-20T15:06:42.540Z,101507.97
2022-12-20T15:09:46.952Z,101508.25
2022-12-20T15:12:51.426Z,101496.53
2022-12-20T15:15:59.288Z,101489.09
2022-12-20T15:19:04.300Z,101474.19
2022-12-20T15:22:16.898Z,101491.09
2022-12-20T15:25:21.179Z,101483.13
2022-12-20T15:28:27.957Z,101478.13
2022-12-20T15:31:36.245Z,101470.00
2022-12-20T15:34:41.329Z,101469.38
2022-12-20T15:37:45.961Z,101472.38
2022-12-20T15:40:51.865Z,101480.97
2022-12-20T15:44:40.112Z,101474.94
2022-12-20T15:47:44.513Z,101472.84
2022-12-20T15:50:54.421Z,101477.06
2022-12-20T15:54:00.130Z,101472.28
2022-12-20T15:57:10.345Z,101424.56
2022-12-20T16:00:15.246Z,101469.00
2022-12-20T16:03:24.886Z,101471.81
2022-12-20T16:06:29.486Z,101463.72
2022-12-20T16:09:33.566Z,101479.34
2022-12-20T16:12:38.323Z,101465.16
2022-12-20T16:15:43.108Z,101473.47
2022-12-20T16:18:47.888Z,101471.97
2022-12-20T16:21:53.641Z,101474.72
2022-12-20T16:24:58.320Z,101412.94
2022-12-20T16:28:02.368Z,101471.38
2022-12-20T16:31:26.762Z,101467.28
2022-12-20T16:34:31.218Z,101463.59
2022-12-20T16:37:39.012Z,101460.25
2022-12-20T16:40:43.955Z,101441.91
2022-12-20T16:43:50.040Z,101460.38
2022-12-20T16:46:54.609Z,101469.00
2022-12-20T16:49:58.672Z,101464.94
2022-12-20T16:53:03.301Z,101458.81
2022-12-20T16:56:09.287Z,101451.16
2022-12-20T16:59:22.747Z,101453.28
2022-12-20T17:02:30.181Z,101460.00
2022-12-20T17:05:37.801Z,101463.72
2022-12-20T17:08:54.938Z,101474.09
2022-12-20T17:12:00.620Z,101473.59
2022-12-20T17:15:05.752Z,101455.06
2022-12-20T17:18:10.561Z,101471.56
2022-12-20T17:21:23.485Z,101464.47
2022-12-20T17:24:28.236Z,101466.91
2022-12-20T17:27:32.844Z,101468.44
2022-12-20T17:30:36.871Z,101467.69
2022-12-20T17:33:41.270Z,101462.66
2022-12-20T17:36:45.982Z,101465.16
2022-12-20T17:39:50.653Z,101456.09
2022-12-20T17:42:55.683Z,101444.94
2022-12-20T17:46:03.497Z,101437.16
2022-12-20T17:49:07.805Z,101430.06
2022-12-20T17:52:16.422Z,101443.97
2022-12-20T17:55:27.880Z,101435.06
2022-12-20T17:58:32.201Z,101402.94
2022-12-20T18:01:39.411Z,101422.13
2022-12-20T18:04:45.694Z,101416.25
2022-12-20T18:07:53.181Z,101402.84
2022-12-20T18:10:59.864Z,101424.75
2022-12-20T18:14:04.456Z,101404.34
2022-12-20T18:17:08.749Z,101415.56
2022-12-20T18:20:13.819Z,101425.81
2022-12-20T18:23:18.455Z,101417.84
2022-12-20T18:26:24.698Z,101420.69
2022-12-20T18:29:30.137Z,101425.06
2022-12-20T18:32:34.984Z,101416.94
2022-12-20T18:35:39.147Z,101436.38
2022-12-20T18:38:45.550Z,101430.47
2022-12-20T18:41:50.020Z,101432.06
2022-12-20T18:44:54.765Z,101427.34
2022-12-20T18:47:59.235Z,101426.31
2022-12-20T18:51:15.012Z,101409.22
2022-12-20T18:54:19.396Z,101388.25
2022-12-20T18:57:23.783Z,101392.03
2022-12-20T19:00:28.179Z,101388.84
2022-12-20T19:03:33.291Z,101410.78
2022-12-20T19:06:38.696Z,101398.34
2022-12-20T19:09:43.455Z,101402.66
2022-12-20T19:12:48.831Z,101397.09
2022-12-20T19:16:01.407Z,101386.41
2022-12-20T19:19:06.051Z,101372.41
2022-12-20T19:22:12.806Z,101368.72
2022-12-20T19:25:17.446Z,101371.13
2022-12-20T19:28:21.889Z,101353.84
2022-12-20T19:31:28.050Z,101371.72
2022-12-20T19:34:32.538Z,101357.72
2022-12-20T19:37:37.623Z,101364.22
2022-12-20T19:40:42.470Z,101354.47
2022-12-20T19:43:48.017Z,101356.69
2022-12-20T19:46:52.536Z,101347.91
2022-12-20T19:49:56.637Z,101347.69
2022-12-20T19:53:04.137Z,101344.44
2022-12-20T19:56:14.019Z,101351.13
2022-12-20T19:59:18.325Z,101337.38
2022-12-20T20:02:22.954Z,101337.97
2022-12-20T20:05:27.782Z,101345.25
2022-12-20T20:08:33.468Z,101328.81
2022-12-20T20:11:38.052Z,101316.41
2022-12-20T20:14:43.392Z,101339.03
2022-12-20T20:17:48.093Z,101322.94
2022-12-20T20:20:53.313Z,101330.09
2022-12-20T20:23:58.196Z,101337.09
2022-12-20T20:27:02.619Z,101329.16
2022-12-20T20:30:08.029Z,101309.66
2022-12-20T20:33:13.296Z,101327.66
2022-12-20T20:36:21.578Z,101323.88
2022-12-20T20:39:26.132Z,101311.13
2022-12-20T20:42:30.372Z,101300.31
2022-12-20T20:45:34.802Z,101316.41
2022-12-20T20:48:39.360Z,101303.47
2022-12-20T20:51:43.745Z,101307.72
2022-12-20T20:54:47.907Z,101311.25
2022-12-20T20:57:52.379Z,101309.47
2022-12-20T21:01:00.811Z,101306.69
2022-12-20T21:04:06.592Z,101296.72
2022-12-20T21:07:11.321Z,101289.00
2022-12-20T21:10:15.596Z,101295.25
2022-12-20T21:13:20.293Z,101299.06
2022-12-20T21:16:25.284Z,101311.81
2022-12-20T21:19:29.381Z,101302.81
2022-12-20T21:22:33.816Z,101282.56
2022-12-20T21:25:38.476Z,101222.66
2022-12-20T21:28:42.906Z,101281.75
2022-12-20T21:31:47.291Z,101266.28
2022-12-20T21:34:52.231Z,101261.22
2022-12-20T21:37:56.871Z,101265.31
2022-12-20T21:41:11.795Z,101251.25
2022-12-20T21:44:16.534Z,101241.03
2022-12-20T21:47:21.289Z,101247.16
2022-12-20T21:50:25.947Z,101263.22
2022-12-20T21:53:32.161Z,101266.53
2022-12-20T21:56:36.810Z,101245.44
2022-12-20T21:59:41.449Z,101242.63
2022-12-20T22:02:46.151Z,101238.13
2022-12-20T22:05:53.330Z,101243.94
2022-12-20T22:09:02.178Z,101210.00
2022-12-20T22:12:07.028Z,101234.50
2022-12-20T22:15:12.333Z,101236.13
2022-12-20T22:18:17.048Z,101225.31
2022-12-20T22:21:24.490Z,101241.72
2022-12-20T22:24:29.120Z,101229.91
2022-12-20T22:27:36.616Z,101235.94
2022-12-20T22:30:44.689Z,101231.91
2022-12-20T22:33:50.174Z,101195.91
2022-12-20T22:36:55.336Z,101235.81
2022-12-20T22:39:59.828Z,101226.09
2022-12-20T22:43:05.486Z,101237.66
2022-12-20T22:46:13.333Z,101237.94
2022-12-20T22:49:19.174Z,101224.88
2022-12-20T22:52:23.582Z,101213.31
2022-12-20T22:55:28.238Z,101232.44
2022-12-20T22:58:33.906Z,101213.69
2022-12-20T23:01:38.546Z,101227.59
2022-12-20T23:04:43.227Z,101230.63
2022-12-20T23:07:47.429Z,101247.63
2022-12-20T23:11:10.521Z,101243.31
2022-12-20T23:14:39.666Z,101252.03
2022-12-20T23:17:44.118Z,101241.22
2022-12-20T23:21:13.467Z,101263.03
2022-12-20T23:24:18.087Z,101254.81
2022-12-20T23:27:22.555Z,101235.63
2022-12-20T23:30:27.534Z,101248.63
2022-12-20T23:33:32.276Z,101245.50
2022-12-20T23:36:36.986Z,101234.94
2022-12-20T23:39:41.493Z,101254.38
2022-12-20T23:42:46.652Z,101239.38
2022-12-20T23:45:51.476Z,101227.31
2022-12-20T23:48:56.250Z,101227.03
2022-12-20T23:52:00.275Z,101226.22
2022-12-20T23:55:04.918Z,101238.13
2022-12-20T23:58:09.061Z,101244.22
